createdAt,value
2022-08-31T00:02:17.182Z,54.41
2022-08-31T00:04:33.706Z,54.41
2022-08-31T00:06:36.474Z,54.40
2022-08-31T00:08:39.055Z,54.19
2022-08-31T00:10:47.513Z,54.40
2022-08-31T00:12:49.601Z,54.42
2022-08-31T00:14:57.272Z,54.33
2022-08-31T00:17:02.930Z,54.46
2022-08-31T00:19:05.807Z,54.53
2022-08-31T00:21:16.655Z,54.69
2022-08-31T00:23:29.075Z,54.96
2022-08-31T00:25:31.402Z,55.17
2022-08-31T00:27:35.539Z,55.33
2022-08-31T00:29:38.541Z,55.74
2022-08-31T00:31:40.602Z,55.73
2022-08-31T00:33:46.748Z,55.76
2022-08-31T00:35:49.157Z,55.84
2022-08-31T00:37:51.031Z,55.55
2022-08-31T00:39:57.566Z,55.75
2022-08-31T00:41:59.846Z,55.95
2022-08-31T00:44:05.136Z,56.20
2022-08-31T00:46:19.719Z,56.22
2022-08-31T00:48:26.426Z,56.28
2022-08-31T00:50:28.428Z,56.49
2022-08-31T00:52:54.615Z,56.45
2022-08-31T00:55:10.848Z,56.49
2022-08-31T00:57:13.742Z,56.36
2022-08-31T00:59:21.187Z,56.78
2022-08-31T01:01:24.938Z,56.77
2022-08-31T01:03:27.844Z,56.69
2022-08-31T01:05:37.295Z,56.97
2022-08-31T01:07:41.721Z,56.92
2022-08-31T01:09:53.262Z,56.78
2022-08-31T01:12:04.542Z,56.95
2022-08-31T01:14:20.323Z,56.56
2022-08-31T01:16:27.247Z,56.75
2022-08-31T01:18:30.713Z,56.93
2022-08-31T01:21:00.500Z,56.80
2022-08-31T01:23:24.992Z,56.78
2022-08-31T01:25:33.612Z,56.76
2022-08-31T01:27:37.650Z,56.90
2022-08-31T01:29:40.975Z,56.79
2022-08-31T01:31:46.340Z,56.85
2022-08-31T01:33:48.754Z,56.85
2022-08-31T01:35:53.019Z,56.73
2022-08-31T01:37:55.273Z,57.32
2022-08-31T01:39:57.737Z,57.26
2022-08-31T01:42:00.308Z,56.79
2022-08-31T01:44:02.640Z,56.71
2022-08-31T01:46:16.324Z,56.67
2022-08-31T01:48:21.928Z,56.55
2022-08-31T01:50:23.794Z,56.59
2022-08-31T01:52:30.814Z,56.62
2022-08-31T01:54:36.485Z,56.43
2022-08-31T01:56:42.875Z,56.46
2022-08-31T01:58:49.005Z,56.25
2022-08-31T02:00:55.851Z,56.84
2022-08-31T02:03:01.244Z,56.57
2022-08-31T02:05:06.664Z,56.20
2022-08-31T02:07:11.933Z,56.27
2022-08-31T02:09:14.691Z,55.98
2022-08-31T02:11:20.015Z,56.45
2022-08-31T02:13:30.171Z,56.19
2022-08-31T02:15:32.893Z,56.34
2022-08-31T02:17:39.035Z,56.61
2022-08-31T02:19:42.865Z,56.40
2022-08-31T02:21:44.752Z,56.63
2022-08-31T02:23:47.322Z,56.26
2022-08-31T02:25:49.857Z,56.44
2022-08-31T02:27:51.700Z,56.00
2022-08-31T02:30:04.055Z,55.85
2022-08-31T02:32:19.584Z,56.06
2022-08-31T02:34:22.175Z,56.33
2022-08-31T02:36:25.053Z,56.22
2022-08-31T02:38:31.094Z,56.35
2022-08-31T02:40:35.600Z,56.74
2022-08-31T02:42:53.428Z,56.52
2022-08-31T02:44:58.341Z,56.67
2022-08-31T02:47:02.507Z,56.60
2022-08-31T02:49:08.306Z,56.42
2022-08-31T02:51:13.175Z,56.55
2022-08-31T02:53:17.798Z,56.64
2022-08-31T02:55:22.211Z,56.61
2022-08-31T02:57:37.194Z,56.48
2022-08-31T02:59:39.200Z,56.54
2022-08-31T03:01:41.041Z,56.52
2022-08-31T03:03:49.518Z,56.60
2022-08-31T03:05:51.649Z,56.58
2022-08-31T03:07:55.047Z,56.42
2022-08-31T03:10:22.995Z,56.50
2022-08-31T03:12:24.880Z,56.76
2022-08-31T03:14:27.285Z,56.58
2022-08-31T03:16:34.304Z,56.80
2022-08-31T03:18:36.340Z,57.04
2022-08-31T03:20:38.830Z,56.99
2022-08-31T03:22:56.587Z,56.87
2022-08-31T03:25:05.390Z,57.43
2022-08-31T03:27:07.388Z,57.10
2022-08-31T03:29:19.394Z,56.99
2022-08-31T03:31:23.846Z,56.77
2022-08-31T03:33:25.998Z,57.24
2022-08-31T03:35:38.017Z,57.10
2022-08-31T03:37:42.907Z,57.04
2022-08-31T03:39:44.643Z,56.98
2022-08-31T03:41:52.998Z,57.14
2022-08-31T03:44:02.378Z,57.32
2022-08-31T03:46:06.167Z,57.22
2022-08-31T03:48:30.256Z,57.06
2022-08-31T03:50:36.988Z,57.44
2022-08-31T03:52:39.415Z,57.39
2022-08-31T03:54:46.744Z,57.45
2022-08-31T03:56:52.672Z,57.53
2022-08-31T03:58:54.984Z,57.41
2022-08-31T04:00:57.519Z,57.52
2022-08-31T04:03:07.167Z,57.22
2022-08-31T04:05:10.125Z,57.33
2022-08-31T04:07:19.504Z,57.73
2022-08-31T04:09:21.867Z,57.48
2022-08-31T04:11:44.232Z,57.47
2022-08-31T04:13:49.688Z,57.62
2022-08-31T04:15:51.962Z,57.57
2022-08-31T04:17:54.988Z,57.37
2022-08-31T04:20:11.322Z,57.31
2022-08-31T04:22:16.802Z,57.50
2022-08-31T04:24:19.200Z,57.33
2022-08-31T04:26:26.414Z,57.42
2022-08-31T04:28:41.659Z,57.40
2022-08-31T04:30:43.648Z,58.01
2022-08-31T04:32:53.604Z,57.90
2022-08-31T04:35:09.751Z,57.48
2022-08-31T04:37:14.843Z,57.63
2022-08-31T04:39:16.883Z,57.61
2022-08-31T04:41:21.526Z,57.91
2022-08-31T04:43:24.074Z,57.52
2022-08-31T04:45:26.275Z,57.64
2022-08-31T04:47:38.680Z,57.62
2022-08-31T04:49:40.606Z,57.80
2022-08-31T04:51:42.889Z,57.65
2022-08-31T04:53:48.956Z,57.76
2022-08-31T04:55:50.854Z,57.98
2022-08-31T04:57:56.559Z,58.22
2022-08-31T05:00:01.889Z,58.06
2022-08-31T05:02:04.249Z,58.13
2022-08-31T05:04:23.394Z,58.11
2022-08-31T05:06:33.526Z,58.00
2022-08-31T05:08:35.541Z,58.22
2022-08-31T05:10:41.935Z,58.14
2022-08-31T05:12:46.539Z,58.17
2022-08-31T05:14:48.328Z,58.24
2022-08-31T05:16:55.028Z,58.11
2022-08-31T05:19:00.494Z,58.07
2022-08-31T05:21:20.738Z,58.02
2022-08-31T05:23:22.530Z,57.80
2022-08-31T05:25:30.574Z,58.05
2022-08-31T05:27:33.204Z,57.93
2022-08-31T05:29:56.854Z,57.65
2022-08-31T05:32:00.594Z,57.75
2022-08-31T05:34:03.708Z,57.50
2022-08-31T05:36:06.210Z,57.47
2022-08-31T05:38:10.053Z,57.49
2022-08-31T05:40:12.485Z,57.84
2022-08-31T05:42:15.627Z,57.74
2022-08-31T05:44:22.813Z,57.85
2022-08-31T05:46:30.410Z,57.79
2022-08-31T05:48:34.194Z,57.56
2022-08-31T05:50:38.014Z,57.46
2022-08-31T05:52:40.270Z,57.50
2022-08-31T05:54:42.099Z,57.44
2022-08-31T05:56:47.719Z,57.60
2022-08-31T05:58:50.833Z,57.73
2022-08-31T06:00:52.515Z,57.34
2022-08-31T06:02:59.745Z,57.36
2022-08-31T06:05:01.693Z,57.22
2022-08-31T06:07:05.653Z,57.28
2022-08-31T06:09:12.811Z,57.45
2022-08-31T06:11:19.438Z,57.65
2022-08-31T06:13:21.154Z,57.61
2022-08-31T06:15:25.962Z,57.61
2022-08-31T06:17:29.239Z,57.21
2022-08-31T06:19:32.160Z,57.64
2022-08-31T06:21:38.795Z,57.19
2022-08-31T06:23:53.558Z,57.29
2022-08-31T06:26:02.636Z,57.13
2022-08-31T06:28:07.727Z,57.17
2022-08-31T06:30:11.161Z,57.24
2022-08-31T06:32:14.705Z,57.49
2022-08-31T06:34:19.157Z,57.33
2022-08-31T06:36:27.170Z,57.49
2022-08-31T06:38:29.945Z,57.32
2022-08-31T06:40:35.250Z,57.24
2022-08-31T06:42:37.649Z,57.32
2022-08-31T06:44:39.355Z,57.30
2022-08-31T06:46:47.401Z,57.40
2022-08-31T06:48:55.994Z,57.42
2022-08-31T06:50:58.471Z,57.50
2022-08-31T06:53:00.852Z,57.45
2022-08-31T06:55:04.681Z,57.55
2022-08-31T06:57:06.642Z,57.62
2022-08-31T06:59:12.907Z,57.27
2022-08-31T07:01:20.613Z,57.27
2022-08-31T07:03:38.910Z,57.31
2022-08-31T07:05:43.507Z,57.32
2022-08-31T07:07:49.319Z,57.08
2022-08-31T07:09:51.244Z,56.92
2022-08-31T07:11:58.248Z,57.07
2022-08-31T07:14:04.659Z,56.50
2022-08-31T07:16:09.910Z,56.57
2022-08-31T07:18:12.190Z,56.74
2022-08-31T07:20:16.303Z,56.69
2022-08-31T07:22:18.485Z,56.61
2022-08-31T07:24:27.740Z,56.27
2022-08-31T07:26:36.503Z,56.10
2022-08-31T07:28:39.647Z,56.17
2022-08-31T07:30:44.977Z,55.93
2022-08-31T07:33:00.783Z,55.92
2022-08-31T07:35:02.870Z,55.96
2022-08-31T07:37:32.955Z,55.72
2022-08-31T07:39:57.929Z,55.55
2022-08-31T07:42:06.222Z,55.57
2022-08-31T07:44:13.124Z,55.71
2022-08-31T07:46:17.271Z,55.49
2022-08-31T07:48:19.625Z,55.27
2022-08-31T07:50:22.933Z,55.54
2022-08-31T07:52:30.225Z,55.47
2022-08-31T07:54:32.577Z,55.21
2022-08-31T07:56:36.361Z,55.14
2022-08-31T07:58:40.000Z,54.81
2022-08-31T08:00:43.277Z,54.73
2022-08-31T08:02:56.251Z,54.75
2022-08-31T08:05:01.340Z,54.78
2022-08-31T08:07:06.106Z,54.58
2022-08-31T08:09:23.984Z,54.64
2022-08-31T08:11:29.980Z,54.87
2022-08-31T08:13:33.802Z,54.63
2022-08-31T08:15:37.375Z,54.55
2022-08-31T08:17:46.629Z,54.56
2022-08-31T08:19:52.654Z,54.34
2022-08-31T08:21:56.758Z,54.39
2022-08-31T08:24:02.486Z,54.12
2022-08-31T08:26:22.165Z,54.22
2022-08-31T08:28:39.043Z,53.99
2022-08-31T08:30:47.790Z,53.71
2022-08-31T08:33:02.701Z,53.77
2022-08-31T08:35:05.466Z,53.67
2022-08-31T08:37:11.000Z,53.66
2022-08-31T08:39:13.885Z,53.47
2022-08-31T08:41:19.472Z,53.23
2022-08-31T08:43:36.797Z,52.83
2022-08-31T08:45:40.846Z,52.54
2022-08-31T08:47:43.210Z,52.72
2022-08-31T08:49:54.852Z,52.35
2022-08-31T08:52:15.270Z,52.43
2022-08-31T08:54:32.447Z,52.05
2022-08-31T08:56:34.433Z,51.67
2022-08-31T08:58:44.443Z,51.42
2022-08-31T09:00:54.767Z,50.96
2022-08-31T09:03:04.043Z,51.02
2022-08-31T09:05:35.273Z,50.57
2022-08-31T09:07:50.910Z,50.72
2022-08-31T09:10:04.967Z,50.67
2022-08-31T09:12:24.853Z,50.42
2022-08-31T09:14:35.112Z,50.73
2022-08-31T09:16:45.995Z,50.25
2022-08-31T09:18:58.953Z,50.47
2022-08-31T09:21:12.860Z,49.97
2022-08-31T09:23:18.294Z,49.68
2022-08-31T09:25:33.399Z,49.66
2022-08-31T09:27:48.753Z,49.49
2022-08-31T09:30:00.096Z,49.03
2022-08-31T09:32:08.267Z,48.68
2022-08-31T09:34:25.715Z,48.44
2022-08-31T09:36:47.112Z,48.32
2022-08-31T09:38:54.543Z,48.32
2022-08-31T09:40:56.834Z,48.06
2022-08-31T09:43:13.825Z,47.91
2022-08-31T09:45:33.140Z,47.93
2022-08-31T09:47:52.673Z,47.79
2022-08-31T09:49:56.294Z,47.52
2022-08-31T09:52:56.747Z,47.48
2022-08-31T09:55:16.114Z,47.18
2022-08-31T09:57:54.627Z,46.86
2022-08-31T09:59:58.604Z,46.97
2022-08-31T10:02:02.587Z,46.86
2022-08-31T10:04:28.617Z,46.91
2022-08-31T10:06:51.035Z,46.88
2022-08-31T10:09:00.194Z,46.44
2022-08-31T10:11:21.678Z,46.58
2022-08-31T10:13:42.305Z,46.15
2022-08-31T10:16:07.286Z,45.87
2022-08-31T10:18:15.240Z,45.71
2022-08-31T10:20:30.339Z,45.76
2022-08-31T10:22:42.232Z,45.17
2022-08-31T10:24:48.434Z,45.62
2022-08-31T10:27:14.908Z,44.62
2022-08-31T10:29:44.615Z,44.88
2022-08-31T10:31:53.311Z,44.33
2022-08-31T10:34:22.185Z,44.44
2022-08-31T10:36:31.739Z,43.84
2022-08-31T10:39:08.800Z,43.64
2022-08-31T10:41:41.644Z,43.51
2022-08-31T10:44:05.618Z,43.04
2022-08-31T10:46:07.697Z,43.17
2022-08-31T10:48:13.389Z,43.00
2022-08-31T10:50:41.289Z,43.27
2022-08-31T10:53:07.204Z,43.17
2022-08-31T10:55:18.200Z,43.22
2022-08-31T10:57:21.614Z,43.09
2022-08-31T10:59:46.022Z,43.36
2022-08-31T11:01:58.623Z,43.21
2022-08-31T11:04:35.616Z,43.29
2022-08-31T11:07:05.786Z,43.16
2022-08-31T11:09:41.276Z,43.42
2022-08-31T11:11:58.640Z,43.67
2022-08-31T11:14:40.535Z,43.00
2022-08-31T11:16:56.503Z,42.67
2022-08-31T11:19:38.608Z,42.55
2022-08-31T11:21:46.776Z,41.74
2022-08-31T11:23:58.980Z,41.48
2022-08-31T11:26:20.694Z,39.86
2022-08-31T11:28:36.680Z,39.79
2022-08-31T11:30:50.520Z,39.36
2022-08-31T11:33:01.069Z,39.16
2022-08-31T11:35:11.085Z,39.99
2022-08-31T11:37:34.052Z,39.40
2022-08-31T11:39:38.653Z,39.82
2022-08-31T11:41:50.766Z,39.53
2022-08-31T11:43:54.114Z,39.42
2022-08-31T11:45:56.589Z,39.28
2022-08-31T11:48:04.207Z,39.46
2022-08-31T11:50:27.099Z,39.35
2022-08-31T11:52:49.990Z,39.97
2022-08-31T11:54:52.674Z,40.30
2022-08-31T11:56:57.298Z,40.10
2022-08-31T11:59:19.686Z,40.57
2022-08-31T12:01:33.917Z,40.39
2022-08-31T12:03:53.417Z,39.94
2022-08-31T12:06:01.099Z,39.93
2022-08-31T12:08:04.307Z,39.42
2022-08-31T12:10:30.173Z,38.24
2022-08-31T12:13:13.205Z,38.29
2022-08-31T12:15:34.243Z,38.32
2022-08-31T12:18:19.202Z,38.35
2022-08-31T12:20:30.231Z,38.28
2022-08-31T12:23:03.985Z,38.49
2022-08-31T12:25:35.536Z,38.83
2022-08-31T12:28:17.193Z,38.44
2022-08-31T12:30:26.192Z,38.72
2022-08-31T12:32:41.405Z,38.59
2022-08-31T12:34:56.449Z,38.86
2022-08-31T12:36:59.910Z,39.00
2022-08-31T12:39:23.075Z,39.45
2022-08-31T12:41:30.325Z,39.40
2022-08-31T12:43:47.047Z,38.97
2022-08-31T12:46:09.749Z,39.40
2022-08-31T12:48:23.228Z,39.10
2022-08-31T12:51:04.238Z,39.17
2022-08-31T12:53:31.716Z,38.83
2022-08-31T12:56:04.188Z,39.25
2022-08-31T12:58:44.733Z,38.17
2022-08-31T13:00:46.606Z,38.12
2022-08-31T13:03:02.633Z,38.08
2022-08-31T13:05:25.590Z,38.37
2022-08-31T13:07:35.815Z,38.52
2022-08-31T13:09:38.108Z,38.63
2022-08-31T13:11:43.346Z,38.70
2022-08-31T13:13:45.911Z,38.72
2022-08-31T13:15:49.284Z,38.61
2022-08-31T13:17:58.346Z,38.99
2022-08-31T13:20:00.951Z,38.23
2022-08-31T13:22:12.205Z,37.71
2022-08-31T13:24:15.318Z,38.08
2022-08-31T13:26:25.834Z,38.09
2022-08-31T13:28:30.535Z,37.90
2022-08-31T13:30:41.361Z,38.18
2022-08-31T13:33:13.925Z,37.94
2022-08-31T13:35:22.173Z,36.99
2022-08-31T13:37:35.978Z,36.17
2022-08-31T13:39:46.976Z,35.68
2022-08-31T13:42:13.980Z,35.71
2022-08-31T13:44:22.574Z,35.47
2022-08-31T13:46:42.013Z,35.52
2022-08-31T13:49:02.334Z,35.23
2022-08-31T13:51:16.475Z,35.54
2022-08-31T13:53:39.896Z,35.00
2022-08-31T13:55:49.767Z,34.64
2022-08-31T13:58:08.073Z,35.03
2022-08-31T14:00:43.102Z,34.15
2022-08-31T14:02:53.421Z,33.95
2022-08-31T14:05:05.961Z,34.58
2022-08-31T14:07:08.178Z,33.32
2022-08-31T14:09:17.191Z,32.70
2022-08-31T14:11:22.056Z,32.53
2022-08-31T14:13:27.885Z,32.61
2022-08-31T14:15:41.183Z,32.59
2022-08-31T14:20:36.054Z,33.03
2022-08-31T14:22:45.869Z,33.59
2022-08-31T14:24:47.579Z,33.32
2022-08-31T14:26:51.355Z,33.45
2022-08-31T14:29:00.555Z,34.18
2022-08-31T14:31:12.311Z,32.72
2022-08-31T14:33:17.693Z,32.68
2022-08-31T14:35:22.738Z,32.33
2022-08-31T14:37:28.813Z,32.53
2022-08-31T14:39:34.515Z,32.45
2022-08-31T14:41:44.239Z,32.42
2022-08-31T14:43:47.392Z,32.72
2022-08-31T14:45:51.553Z,32.44
2022-08-31T14:47:54.355Z,32.30
2022-08-31T14:50:07.002Z,32.03
2022-08-31T14:52:10.300Z,31.86
2022-08-31T14:54:13.361Z,32.23
2022-08-31T14:56:20.616Z,31.03
2022-08-31T14:58:24.599Z,31.57
2022-08-31T15:00:32.465Z,32.26
2022-08-31T15:02:34.785Z,31.61
2022-08-31T15:04:45.693Z,30.67
2022-08-31T15:06:55.005Z,29.49
2022-08-31T15:08:56.781Z,29.15
2022-08-31T15:10:59.207Z,29.48
2022-08-31T15:13:12.631Z,29.44
2022-08-31T15:15:18.603Z,30.25
2022-08-31T15:17:27.063Z,31.45
2022-08-31T15:19:31.343Z,30.58
2022-08-31T15:21:33.047Z,31.53
2022-08-31T15:23:47.315Z,30.25
2022-08-31T15:25:49.125Z,30.23
2022-08-31T15:27:51.837Z,30.80
2022-08-31T15:29:57.969Z,30.82
2022-08-31T15:32:01.671Z,31.58
2022-08-31T15:34:08.271Z,31.42
2022-08-31T15:36:19.002Z,31.26
2022-08-31T15:38:27.138Z,30.19
2022-08-31T15:40:38.643Z,30.52
2022-08-31T15:42:42.978Z,30.19
2022-08-31T15:45:01.451Z,31.03
2022-08-31T15:47:22.237Z,29.34
2022-08-31T15:49:27.797Z,29.27
2022-08-31T15:51:36.877Z,29.89
2022-08-31T15:53:43.205Z,29.31
2022-08-31T15:55:45.825Z,29.31
2022-08-31T15:57:48.614Z,29.11
2022-08-31T15:59:50.541Z,27.97
2022-08-31T16:01:54.054Z,28.84
2022-08-31T16:04:02.874Z,27.92
2022-08-31T16:06:05.830Z,28.62
2022-08-31T16:08:12.230Z,29.21
2022-08-31T16:10:20.433Z,28.58
2022-08-31T16:12:23.020Z,29.03
2022-08-31T16:14:26.602Z,28.32
2022-08-31T16:16:36.592Z,27.95
2022-08-31T16:18:38.707Z,28.18
2022-08-31T16:20:44.185Z,27.63
2022-08-31T16:22:59.302Z,28.12
2022-08-31T16:25:03.122Z,28.18
2022-08-31T16:27:08.923Z,27.74
2022-08-31T16:29:14.881Z,28.56
2022-08-31T16:31:17.014Z,28.08
2022-08-31T16:33:20.362Z,28.90
2022-08-31T16:35:23.279Z,28.47
2022-08-31T16:37:25.808Z,28.24
2022-08-31T16:39:28.457Z,28.10
2022-08-31T16:41:36.457Z,28.85
2022-08-31T16:43:39.675Z,28.38
2022-08-31T16:45:44.089Z,28.66
2022-08-31T16:47:47.715Z,28.55
2022-08-31T16:49:50.125Z,28.93
2022-08-31T16:51:55.680Z,29.03
2022-08-31T16:54:03.855Z,29.19
2022-08-31T16:56:06.316Z,29.70
2022-08-31T16:58:08.687Z,28.65
2022-08-31T17:00:12.439Z,29.28
2022-08-31T17:02:16.132Z,29.85
2022-08-31T17:04:41.492Z,30.83
2022-08-31T17:06:46.154Z,31.25
2022-08-31T17:08:48.041Z,30.48
2022-08-31T17:10:51.648Z,30.46
2022-08-31T17:13:01.290Z,30.67
2022-08-31T17:15:04.377Z,31.51
2022-08-31T17:17:07.710Z,31.70
2022-08-31T17:19:16.454Z,31.47
2022-08-31T17:21:20.305Z,31.66
2022-08-31T17:23:28.562Z,32.48
2022-08-31T17:25:36.333Z,32.10
2022-08-31T17:27:38.569Z,33.24
2022-08-31T17:29:44.976Z,33.26
2022-08-31T17:31:52.612Z,34.19
2022-08-31T17:33:55.492Z,34.48
2022-08-31T17:36:00.000Z,34.13
2022-08-31T17:38:03.824Z,34.47
2022-08-31T17:40:08.221Z,34.64
2022-08-31T17:42:15.593Z,34.82
2022-08-31T17:44:21.771Z,35.13
2022-08-31T17:46:24.032Z,35.06
2022-08-31T17:48:26.268Z,35.05
2022-08-31T17:50:35.551Z,35.17
2022-08-31T17:52:37.380Z,35.04
2022-08-31T17:54:43.514Z,35.11
2022-08-31T17:56:54.456Z,34.88
2022-08-31T17:58:57.932Z,35.14
2022-08-31T18:01:06.054Z,35.31
2022-08-31T18:03:08.264Z,35.69
2022-08-31T18:05:12.040Z,35.39
2022-08-31T18:07:15.186Z,35.40
2022-08-31T18:09:22.721Z,35.47
2022-08-31T18:11:25.111Z,35.35
2022-08-31T18:13:27.314Z,35.31
2022-08-31T18:15:29.594Z,35.61
2022-08-31T18:17:31.695Z,36.26
2022-08-31T18:19:38.090Z,37.27
2022-08-31T18:21:43.055Z,38.12
2022-08-31T18:23:48.599Z,38.42
2022-08-31T18:25:58.198Z,38.88
2022-08-31T18:28:05.274Z,39.21
2022-08-31T18:30:09.104Z,39.83
2022-08-31T18:32:16.388Z,39.79
2022-08-31T18:34:22.753Z,40.31
2022-08-31T18:36:26.192Z,40.56
2022-08-31T18:38:32.267Z,40.64
2022-08-31T18:40:59.530Z,40.91
2022-08-31T18:43:37.958Z,41.03
2022-08-31T18:45:47.136Z,41.18
2022-08-31T18:50:22.041Z,41.07
2022-08-31T18:52:25.260Z,41.53
2022-08-31T18:54:28.983Z,40.81
2022-08-31T18:56:32.861Z,41.09
2022-08-31T18:58:35.954Z,41.23
2022-08-31T19:00:45.211Z,41.55
2022-08-31T19:02:57.344Z,41.67
2022-08-31T19:05:01.145Z,41.78
2022-08-31T19:09:28.472Z,41.09
2022-08-31T19:11:31.143Z,41.40
2022-08-31T19:13:36.497Z,41.13
2022-08-31T19:15:41.428Z,40.90
2022-08-31T19:17:49.309Z,41.20
2022-08-31T19:19:51.578Z,41.24
2022-08-31T19:22:06.911Z,41.49
2022-08-31T19:24:13.727Z,40.77
2022-08-31T19:26:28.183Z,40.94
2022-08-31T19:28:45.402Z,40.85
2022-08-31T19:30:51.606Z,41.09
2022-08-31T19:32:57.006Z,41.11
2022-08-31T19:35:17.728Z,40.56
2022-08-31T19:37:24.158Z,41.01
2022-08-31T19:39:32.062Z,41.34
2022-08-31T19:41:51.702Z,41.84
2022-08-31T19:44:08.230Z,41.09
2022-08-31T19:46:24.279Z,41.35
2022-08-31T19:48:27.022Z,41.79
2022-08-31T19:50:44.739Z,40.86
2022-08-31T19:52:57.187Z,40.98
2022-08-31T19:55:09.062Z,39.86
2022-08-31T19:57:16.844Z,41.02
2022-08-31T19:59:24.303Z,40.45
2022-08-31T20:01:33.703Z,40.29
2022-08-31T20:03:38.823Z,40.45
2022-08-31T20:05:43.882Z,41.00
2022-08-31T20:07:45.851Z,41.06
2022-08-31T20:09:57.591Z,40.43
2022-08-31T20:12:02.976Z,40.41
2022-08-31T20:14:05.836Z,40.60
2022-08-31T20:16:12.984Z,40.73
2022-08-31T20:18:15.393Z,40.89
2022-08-31T20:20:17.416Z,41.38
2022-08-31T20:22:29.923Z,41.33
2022-08-31T20:24:33.611Z,41.30
2022-08-31T20:26:47.191Z,41.32
2022-08-31T20:29:04.571Z,41.57
2022-08-31T20:31:13.225Z,42.25
2022-08-31T20:33:15.988Z,42.36
2022-08-31T20:35:19.365Z,42.68
2022-08-31T20:37:26.118Z,42.77
2022-08-31T20:39:30.395Z,43.25
2022-08-31T20:41:54.488Z,43.32
2022-08-31T20:44:13.247Z,43.44
2022-08-31T20:46:36.276Z,43.80
2022-08-31T20:49:12.494Z,43.78
2022-08-31T20:51:26.677Z,43.99
2022-08-31T20:53:43.343Z,44.26
2022-08-31T20:55:55.007Z,44.37
2022-08-31T20:57:56.771Z,44.54
2022-08-31T21:00:14.551Z,44.80
2022-08-31T21:02:27.105Z,45.23
2022-08-31T21:04:30.847Z,44.89
2022-08-31T21:06:37.965Z,45.27
2022-08-31T21:08:43.030Z,45.49
2022-08-31T21:10:45.081Z,45.62
2022-08-31T21:13:04.322Z,45.42
2022-08-31T21:15:10.370Z,45.62
2022-08-31T21:17:14.524Z,45.98
2022-08-31T21:19:38.162Z,45.87
2022-08-31T21:21:43.759Z,46.08
2022-08-31T21:23:48.776Z,46.57
2022-08-31T21:25:51.417Z,46.63
2022-08-31T21:28:04.383Z,46.89
2022-08-31T21:30:09.241Z,47.42
2022-08-31T21:32:15.431Z,47.79
2022-08-31T21:34:31.676Z,47.92
2022-08-31T21:36:36.015Z,47.75
2022-08-31T21:38:38.946Z,47.93
2022-08-31T21:41:19.657Z,47.94
2022-08-31T21:43:23.890Z,48.20
2022-08-31T21:45:25.758Z,48.02
2022-08-31T21:47:31.919Z,48.30
2022-08-31T21:49:35.682Z,48.37
2022-08-31T21:51:50.219Z,48.33
2022-08-31T21:54:13.184Z,48.43
2022-08-31T21:56:21.615Z,48.53
2022-08-31T21:58:24.329Z,49.00
2022-08-31T22:00:29.609Z,48.86
2022-08-31T22:02:32.421Z,49.16
2022-08-31T22:04:36.465Z,49.06
2022-08-31T22:06:45.674Z,49.48
2022-08-31T22:08:56.364Z,49.41
2022-08-31T22:11:00.256Z,49.66
2022-08-31T22:13:05.798Z,49.79
2022-08-31T22:15:11.855Z,50.30
2022-08-31T22:17:15.066Z,50.54
2022-08-31T22:19:25.755Z,50.59
2022-08-31T22:21:30.615Z,50.77
2022-08-31T22:23:32.777Z,51.07
2022-08-31T22:25:36.040Z,50.99
2022-08-31T22:27:43.648Z,51.27
2022-08-31T22:29:46.144Z,51.38
2022-08-31T22:31:53.054Z,51.29
2022-08-31T22:33:58.726Z,51.62
2022-08-31T22:36:00.717Z,51.60
2022-08-31T22:38:11.036Z,51.71
2022-08-31T22:40:22.842Z,51.84
2022-08-31T22:42:25.637Z,51.88
2022-08-31T22:44:29.875Z,52.25
2022-08-31T22:46:32.343Z,52.34
2022-08-31T22:48:34.334Z,52.44
2022-08-31T22:50:39.794Z,52.63
2022-08-31T22:52:50.857Z,52.61
2022-08-31T22:54:52.688Z,52.66
2022-08-31T22:56:57.944Z,52.82
2022-08-31T22:59:28.369Z,52.74
2022-08-31T23:01:38.937Z,52.80
2022-08-31T23:03:43.067Z,53.02
2022-08-31T23:05:59.069Z,52.98
2022-08-31T23:08:02.086Z,53.37
2022-08-31T23:10:04.597Z,53.14
2022-08-31T23:12:23.805Z,53.22
2022-08-31T23:14:27.662Z,53.48
2022-08-31T23:16:37.282Z,53.87
2022-08-31T23:18:57.543Z,53.69
2022-08-31T23:21:04.373Z,53.92
2022-08-31T23:23:07.043Z,53.95
2022-08-31T23:25:17.281Z,54.03
2022-08-31T23:27:22.179Z,54.07
2022-08-31T23:29:28.025Z,54.20
2022-08-31T23:31:35.958Z,54.20
2022-08-31T23:33:44.559Z,53.96
2022-08-31T23:36:00.134Z,54.10
2022-08-31T23:38:26.161Z,54.21
2022-08-31T23:41:21.961Z,54.44
2022-08-31T23:43:31.275Z,54.58
2022-08-31T23:46:03.604Z,54.71
2022-08-31T23:48:27.422Z,54.81
2022-08-31T23:50:49.758Z,55.17
2022-08-31T23:53:09.895Z,55.29
2022-08-31T23:58:06.018Z,55.28
